Time;durP1;ratioP1;P1;durP2;ratioP2;P2;SDS_P1;SDS_P2;PMS_P1;PMS_P2;Temp;Humidity;BMP_temperature;BMP_pressure;BME280_temperature;BME280_humidity;BME280_pressure;Samples;Min_cycle;Max_cycle;Signal;HPM_P1;HPM_P2
2021/06/07 00:01:52;;;;;;;7.40;4.53;;;;;;;-145.50;100.00;65435.88;4886355;29;20136;-38
2021/06/07 00:04:19;;;;;;;9.60;4.72;;;;;;;-145.50;100.00;65435.88;4887561;29;20057;-38
2021/06/07 00:06:46;;;;;;;7.32;4.70;;;;;;;-145.50;100.00;65435.88;4886830;29;20135;-38
2021/06/07 00:09:14;;;;;;;9.20;4.32;;;;;;;-145.50;100.00;65435.88;4880159;29;20052;-38
2021/06/07 00:11:44;;;;;;;10.82;4.70;;;;;;;-145.50;100.00;65435.88;4881440;29;20896;-38
2021/06/07 00:14:12;;;;;;;6.88;4.40;;;;;;;-145.50;100.00;65435.88;4887796;29;20067;-38
2021/06/07 00:16:39;;;;;;;8.50;4.45;;;;;;;-145.50;100.00;65435.88;4892618;29;20445;-39
2021/06/07 00:19:08;;;;;;;7.68;5.18;;;;;;;-145.50;100.00;65435.88;4882578;29;20529;-39
2021/06/07 00:21:36;;;;;;;8.90;4.53;;;;;;;-145.50;100.00;65435.88;4887951;29;20144;-39
2021/06/07 00:24:04;;;;;;;8.18;4.50;;;;;;;-145.50;100.00;65435.88;4884545;29;20052;-38
2021/06/07 00:26:32;;;;;;;6.00;4.40;;;;;;;-145.50;100.00;65435.88;4895609;29;20136;-39
2021/06/07 00:28:58;;;;;;;8.43;4.60;;;;;;;-145.50;100.00;65435.88;4893208;29;20738;-38
2021/06/07 00:31:25;;;;;;;8.27;4.80;;;;;;;-145.50;100.00;65435.88;4893147;29;20095;-38
2021/06/07 00:33:54;;;;;;;7.63;4.75;;;;;;;-145.50;100.00;65435.88;4888104;29;20088;-38
2021/06/07 00:36:22;;;;;;;8.75;4.80;;;;;;;-145.50;100.00;65435.88;4893540;29;20077;-38
2021/06/07 00:38:50;;;;;;;6.78;4.38;;;;;;;-145.50;100.00;65435.88;4892529;29;20095;-38
2021/06/07 00:41:17;;;;;;;;;;;;;;;-145.50;100.00;65435.88;4884479;29;20619;-38
2021/06/07 00:43:44;;;;;;;7.97;4.00;;;;;;;-145.50;100.00;65435.88;4893928;29;20020;-38
2021/06/07 00:46:11;;;;;;;9.75;4.20;;;;;;;-145.50;100.00;65435.88;4889258;29;20086;-39
2021/06/07 00:48:38;;;;;;;7.57;4.55;;;;;;;-145.50;100.00;65435.88;4894731;29;20056;-38
2021/06/07 00:51:09;;;;;;;8.82;3.75;;;;;;;-145.50;100.00;65435.88;4883345;29;20084;-38
2021/06/07 00:53:36;;;;;;;10.05;4.22;;;;;;;-145.50;100.00;65435.88;4889249;29;20088;-39
2021/06/07 00:56:08;;;;;;;5.70;3.63;;;;;;;-145.50;100.00;65435.88;4892111;29;20108;-38
2021/06/07 00:58:40;;;;;;;6.75;3.72;;;;;;;-145.50;100.00;65435.88;4889430;29;20533;-39
2021/06/07 01:01:11;;;;;;;7.05;3.55;;;;;;;-145.50;100.00;65435.88;4894148;29;20140;-39
2021/06/07 01:03:41;;;;;;;7.90;3.53;;;;;;;-145.50;100.00;65435.88;4883462;29;20135;-38
2021/06/07 01:06:09;;;;;;;7.85;3.85;;;;;;;-145.50;100.00;65435.88;4888828;29;20080;-39
2021/06/07 01:08:36;;;;;;;5.03;3.28;;;;;;;-145.50;100.00;65435.88;4888476;29;20110;-38
2021/06/07 01:11:04;;;;;;;5.88;3.35;;;;;;;-145.50;100.00;65435.88;4893921;29;20054;-38
2021/06/07 01:13:31;;;;;;;6.05;3.25;;;;;;;-145.50;100.00;65435.88;4887653;29;20470;-38
2021/06/07 01:15:58;;;;;;;6.65;3.72;;;;;;;-145.50;100.00;65435.88;4892277;29;20137;-38
2021/06/07 01:18:27;;;;;;;6.20;3.15;;;;;;;-145.50;100.00;65435.88;4885929;29;20157;-38
2021/06/07 01:20:56;;;;;;;6.40;3.40;;;;;;;-145.50;100.00;65435.88;4884519;29;20147;-38
2021/06/07 01:23:22;;;;;;;6.13;3.08;;;;;;;-145.50;100.00;65435.88;4887872;29;20564;-38
2021/06/07 01:25:49;;;;;;;5.88;3.42;;;;;;;-145.50;100.00;65435.88;4885974;29;20764;-38
2021/06/07 01:28:18;;;;;;;6.85;3.30;;;;;;;-145.50;100.00;65435.88;4898396;29;20146;-38
2021/06/07 01:30:48;;;;;;;11.02;3.47;;;;;;;-145.50;100.00;65435.88;4885092;29;20132;-38
2021/06/07 01:33:17;;;;;;;7.30;3.20;;;;;;;-145.50;100.00;65435.88;4885727;29;20461;-38
2021/06/07 01:35:44;;;;;;;6.63;3.08;;;;;;;-145.50;100.00;65435.88;4891641;29;20583;-38
2021/06/07 01:38:12;;;;;;;4.80;2.78;;;;;;;-145.50;100.00;65435.88;4889096;29;20084;-38
2021/06/07 01:40:42;;;;;;;10.85;3.55;;;;;;;-145.50;100.00;65435.88;4892926;29;20048;-38
2021/06/07 01:43:10;;;;;;;6.25;2.47;;;;;;;-145.50;100.00;65435.88;4888106;29;20076;-39
2021/06/07 01:45:38;;;;;;;8.30;2.85;;;;;;;-145.50;100.00;65435.88;4889676;29;20279;-38
2021/06/07 01:48:08;;;;;;;5.53;2.75;;;;;;;-145.50;100.00;65435.88;4884066;29;20088;-38
2021/06/07 01:50:35;;;;;;;5.07;3.10;;;;;;;-145.50;100.00;65435.88;4893240;29;20139;-38
2021/06/07 01:53:04;;;;;;;7.43;2.35;;;;;;;-145.50;100.00;65435.88;4889227;29;20171;-38
2021/06/07 01:55:34;;;;;;;5.32;2.60;;;;;;;-145.50;100.00;65435.88;4891272;29;20152;-38
2021/06/07 01:58:00;;;;;;;3.78;2.58;;;;;;;-145.50;100.00;65435.88;4889377;29;20044;-38
2021/06/07 02:00:32;;;;;;;5.75;2.70;;;;;;;-145.50;100.00;65435.88;4880978;29;20481;-38
2021/06/07 02:02:59;;;;;;;3.20;2.47;;;;;;;-145.50;100.00;65435.88;4886640;29;20074;-38
2021/06/07 02:05:28;;;;;;;6.38;2.58;;;;;;;-145.50;100.00;65435.88;4887164;29;20190;-38
2021/06/07 02:07:57;;;;;;;;;;;;;;;-145.50;100.00;65435.88;4897948;29;20444;-38
2021/06/07 02:10:26;;;;;;;5.32;2.78;;;;;;;-145.50;100.00;65435.88;4888343;29;19977;-38
2021/06/07 02:12:53;;;;;;;5.75;2.20;;;;;;;-145.50;100.00;65435.88;4891551;29;20143;-38
2021/06/07 02:15:21;;;;;;;6.80;2.17;;;;;;;-145.50;100.00;65435.88;4882422;29;20131;-38
2021/06/07 02:17:48;;;;;;;5.60;2.58;;;;;;;-145.50;100.00;65435.88;4889265;29;20155;-38
2021/06/07 02:20:18;;;;;;;3.88;2.22;;;;;;;-145.50;100.00;65435.88;4891715;29;20098;-38
2021/06/07 02:22:45;;;;;;;9.20;2.38;;;;;;;-145.50;100.00;65435.88;4884097;29;20527;-38
2021/06/07 02:25:19;;;;;;;3.97;2.00;;;;;;;-145.50;100.00;65435.88;4892146;29;20500;-38
2021/06/07 02:27:46;;;;;;;5.30;2.40;;;;;;;-145.50;100.00;65435.88;4887155;29;20060;-38
2021/06/07 02:30:20;;;;;;;4.03;2.63;;;;;;;-145.50;100.00;65435.88;4887846;29;20098;-38
2021/06/07 02:32:47;;;;;;;7.13;2.50;;;;;;;-145.50;100.00;65435.88;4882749;29;20441;-38
2021/06/07 02:35:16;;;;;;;5.25;2.13;;;;;;;-145.50;100.00;65435.88;4891841;29;20512;-38
2021/06/07 02:37:44;;;;;;;4.20;2.08;;;;;;;-145.50;100.00;65435.88;4892100;29;20547;-38
2021/06/07 02:40:13;;;;;;;5.45;2.20;;;;;;;-145.50;100.00;65435.88;4885914;29;20091;-38
2021/06/07 02:42:40;;;;;;;5.45;2.25;;;;;;;-145.50;100.00;65435.88;4884072;29;20087;-38
2021/06/07 02:45:10;;;;;;;5.13;2.38;;;;;;;-145.50;100.00;65435.88;4879336;29;20120;-38
2021/06/07 02:47:39;;;;;;;3.75;2.22;;;;;;;-145.50;100.00;65435.88;4889218;29;20124;-38
2021/06/07 02:50:07;;;;;;;;;;;;;;;-145.50;100.00;65435.88;4883132;29;20052;-38
2021/06/07 02:52:34;;;;;;;6.88;2.38;;;;;;;-145.50;100.00;65435.88;4891915;29;19992;-38
2021/06/07 02:55:00;;;;;;;5.18;2.85;;;;;;;-145.50;100.00;65435.88;4888221;29;20072;-38
2021/06/07 02:57:27;;;;;;;6.95;2.67;;;;;;;-145.50;100.00;65435.88;4887117;29;20830;-38
2021/06/07 02:59:53;;;;;;;5.70;2.45;;;;;;;-145.50;100.00;65435.88;4892783;29;20112;-38
2021/06/07 03:02:20;;;;;;;7.75;2.67;;;;;;;-145.50;100.00;65435.88;4884652;29;20135;-38
2021/06/07 03:04:46;;;;;;;7.78;3.00;;;;;;;-145.50;100.00;65435.88;4891551;29;20727;-38
2021/06/07 03:07:13;;;;;;;5.18;2.85;;;;;;;-145.50;100.00;65435.88;4884993;29;20139;-38
2021/06/07 03:09:39;;;;;;;5.85;2.70;;;;;;;-145.50;100.00;65435.88;4886195;29;20115;-38
2021/06/07 03:12:06;;;;;;;4.85;2.65;;;;;;;-145.50;100.00;65435.88;4880652;29;20119;-38
2021/06/07 03:14:33;;;;;;;8.13;2.80;;;;;;;-145.50;100.00;65435.88;4890970;29;20194;-38
2021/06/07 03:16:59;;;;;;;7.45;2.40;;;;;;;-145.50;100.00;65435.88;4891847;29;20148;-38
2021/06/07 03:19:26;;;;;;;2.70;2.50;;;;;;;-145.50;100.00;65435.88;4886846;29;20080;-38
2021/06/07 03:21:52;;;;;;;5.72;2.58;;;;;;;-145.50;100.00;65435.88;4889153;29;20106;-38
2021/06/07 03:24:19;;;;;;;4.45;2.92;;;;;;;-145.50;100.00;65435.88;4883921;29;20103;-38
2021/06/07 03:26:45;;;;;;;6.25;2.72;;;;;;;-145.50;100.00;65435.88;4887907;29;20107;-38
2021/06/07 03:29:14;;;;;;;5.63;3.05;;;;;;;-145.50;100.00;65435.88;4891494;29;20079;-38
2021/06/07 03:31:41;;;;;;;4.03;2.30;;;;;;;-145.50;100.00;65435.88;4889780;29;21121;-38
2021/06/07 03:34:07;;;;;;;5.97;2.42;;;;;;;-145.50;100.00;65435.88;4888287;29;20425;-38
2021/06/07 03:36:35;;;;;;;4.43;2.80;;;;;;;-145.50;100.00;65435.88;4888344;29;20136;-38
2021/06/07 03:39:03;;;;;;;5.30;2.90;;;;;;;-145.50;100.00;65435.88;4884048;29;20139;-38
2021/06/07 03:41:30;;;;;;;5.20;2.45;;;;;;;-145.50;100.00;65435.88;4885886;29;20154;-38
2021/06/07 03:43:56;;;;;;;4.68;2.90;;;;;;;-145.50;100.00;65435.88;4891210;29;20515;-38
2021/06/07 03:46:23;;;;;;;6.38;2.92;;;;;;;-145.50;100.00;65435.88;4884469;29;20461;-38
2021/06/07 03:48:49;;;;;;;7.57;2.80;;;;;;;-145.50;100.00;65435.88;4890899;29;20060;-38
2021/06/07 03:51:16;;;;;;;3.92;2.55;;;;;;;-145.50;100.00;65435.88;4880714;29;20156;-38
2021/06/07 03:53:42;;;;;;;6.93;3.05;;;;;;;-145.50;100.00;65435.88;4886100;29;20125;-38
2021/06/07 03:56:09;;;;;;;6.55;3.08;;;;;;;-145.50;100.00;65435.88;4891265;29;20647;-38
2021/06/07 03:58:35;;;;;;;6.47;2.85;;;;;;;-145.50;100.00;65435.88;4882866;29;20080;-38
2021/06/07 04:01:02;;;;;;;4.57;2.80;;;;;;;-145.50;100.00;65435.88;4893826;29;20080;-38
2021/06/07 04:03:28;;;;;;;8.38;2.90;;;;;;;-145.50;100.00;65435.88;4888353;29;20060;-38
2021/06/07 04:05:55;;;;;;;4.45;2.80;;;;;;;-145.50;100.00;65435.88;4890227;29;20076;-38
2021/06/07 04:08:21;;;;;;;5.80;2.80;;;;;;;-145.50;100.00;65435.88;4887963;29;20128;-38
2021/06/07 04:10:48;;;;;;;5.60;2.75;;;;;;;-145.50;100.00;65435.88;4887361;29;20155;-38
2021/06/07 04:13:14;;;;;;;5.03;2.53;;;;;;;-145.50;100.00;65435.88;4889995;29;20101;-38
2021/06/07 04:15:41;;;;;;;7.65;3.10;;;;;;;-145.50;100.00;65435.88;4888110;29;20085;-38
2021/06/07 04:18:08;;;;;;;7.43;3.08;;;;;;;-145.50;100.00;65435.88;4887669;29;20083;-38
2021/06/07 04:20:35;;;;;;;5.45;2.72;;;;;;;-145.50;100.00;65435.88;4883054;29;20143;-38
2021/06/07 04:23:02;;;;;;;4.72;2.78;;;;;;;-145.50;100.00;65435.88;4889690;29;20084;-38
2021/06/07 04:25:30;;;;;;;6.35;3.13;;;;;;;-145.50;100.00;65435.88;4886500;29;20060;-38
2021/06/07 04:27:59;;;;;;;7.90;4.18;;;;;;;-145.50;100.00;65435.88;4895207;29;20507;-38
2021/06/07 04:30:26;;;;;;;;;;;;;;;-145.50;100.00;65435.88;4894926;29;20460;-38
2021/06/07 04:32:54;;;;;;;7.07;2.90;;;;;;;-145.50;100.00;65435.88;4884038;29;19927;-38
2021/06/07 04:35:22;;;;;;;6.25;2.97;;;;;;;-145.50;100.00;65435.88;4889699;29;20091;-38
2021/06/07 04:37:51;;;;;;;5.20;2.67;;;;;;;-145.50;100.00;65435.88;4888813;29;20084;-38
2021/06/07 04:40:19;;;;;;;;;;;;;;;-145.50;100.00;65435.88;4888700;29;20088;-38
2021/06/07 04:42:46;;;;;;;4.82;2.50;;;;;;;-145.50;100.00;65435.88;4885018;29;19965;-38
2021/06/07 04:45:13;;;;;;;5.15;2.25;;;;;;;-145.50;100.00;65435.88;4894050;29;20131;-38
2021/06/07 04:47:40;;;;;;;3.58;2.28;;;;;;;-145.50;100.00;65435.88;4887887;29;20052;-38
2021/06/07 04:50:08;;;;;;;9.75;3.92;;;;;;;-145.50;100.00;65435.88;4886857;29;20143;-38
2021/06/07 04:52:36;;;;;;;5.82;3.30;;;;;;;-145.50;100.00;65435.88;4892128;29;20091;-38
2021/06/07 04:55:03;;;;;;;4.95;2.95;;;;;;;-145.50;100.00;65435.88;4885461;29;20191;-38
2021/06/07 04:57:30;;;;;;;6.55;2.38;;;;;;;-145.50;100.00;65435.88;4893961;29;20080;-39
2021/06/07 04:59:57;;;;;;;6.32;2.60;;;;;;;-145.50;100.00;65435.88;4884494;29;20540;-38
2021/06/07 05:02:23;;;;;;;4.70;2.30;;;;;;;-145.50;100.00;65435.88;4888202;29;20135;-38
2021/06/07 05:04:50;;;;;;;11.57;2.40;;;;;;;-145.50;100.00;65435.88;4886606;29;20234;-38
2021/06/07 05:07:19;;;;;;;5.93;2.20;;;;;;;-145.50;100.00;65435.88;4896279;29;20052;-38
2021/06/07 05:09:45;;;;;;;4.05;1.88;;;;;;;-145.50;100.00;65435.88;4891975;29;20131;-38
2021/06/07 05:12:12;;;;;;;3.60;2.28;;;;;;;-145.50;100.00;65435.88;4882364;29;20056;-38
2021/06/07 05:14:39;;;;;;;6.05;2.22;;;;;;;-145.50;100.00;65435.88;4889092;29;20524;-38
2021/06/07 05:17:05;;;;;;;4.32;2.17;;;;;;;-145.50;100.00;65435.88;4882302;29;20096;-38
2021/06/07 05:19:32;;;;;;;3.20;2.47;;;;;;;-145.50;100.00;65435.88;4892604;29;20091;-38
2021/06/07 05:21:58;;;;;;;9.25;2.40;;;;;;;-145.50;100.00;65435.88;4887647;29;20144;-39
2021/06/07 05:24:25;;;;;;;4.43;2.42;;;;;;;-145.50;100.00;65435.88;4891884;29;20147;-39
2021/06/07 05:26:51;;;;;;;6.72;2.30;;;;;;;-145.50;100.00;65435.88;4893147;29;20064;-39
2021/06/07 05:29:18;;;;;;;4.75;2.65;;;;;;;-145.50;100.00;65435.88;4881516;29;20095;-39
2021/06/07 05:31:44;;;;;;;5.75;3.38;;;;;;;-145.50;100.00;65435.88;4886650;29;20065;-39
2021/06/07 05:34:11;;;;;;;5.72;2.92;;;;;;;-145.50;100.00;65435.88;4887762;29;20083;-39
2021/06/07 05:36:37;;;;;;;5.13;2.03;;;;;;;-145.50;100.00;65435.88;4894087;29;20178;-39
2021/06/07 05:39:04;;;;;;;3.03;1.65;;;;;;;-145.50;100.00;65435.88;4884832;29;20132;-38
2021/06/07 05:41:30;;;;;;;4.13;1.55;;;;;;;-145.50;100.00;65435.88;4891472;29;20182;-38
2021/06/07 05:43:57;;;;;;;2.80;1.52;;;;;;;-145.50;100.00;65435.88;4882307;29;20083;-38
2021/06/07 05:46:23;;;;;;;4.25;2.10;;;;;;;-145.50;100.00;65435.88;4886345;29;20083;-39
2021/06/07 05:48:50;;;;;;;2.65;1.88;;;;;;;-145.50;100.00;65435.88;4894126;29;20295;-39
2021/06/07 05:51:17;;;;;;;8.48;2.88;;;;;;;-145.50;100.00;65435.88;4886912;29;20131;-39
2021/06/07 05:53:43;;;;;;;7.50;2.60;;;;;;;-145.50;100.00;65435.88;4893583;29;20147;-38
2021/06/07 05:56:10;;;;;;;5.93;1.83;;;;;;;-145.50;100.00;65435.88;4883306;29;20179;-38
2021/06/07 05:58:36;;;;;;;2.97;1.65;;;;;;;-145.50;100.00;65435.88;4891983;29;20083;-38
2021/06/07 06:01:03;;;;;;;3.15;1.67;;;;;;;-145.50;100.00;65435.88;4892659;29;20045;-39
2021/06/07 06:03:30;;;;;;;5.38;1.75;;;;;;;-145.50;100.00;65435.88;4885689;29;20049;-39
2021/06/07 06:05:56;;;;;;;2.92;1.60;;;;;;;-145.50;100.00;65435.88;4892950;29;20091;-40
2021/06/07 06:08:23;;;;;;;4.10;1.60;;;;;;;-145.50;100.00;65435.88;4879366;29;20076;-38
2021/06/07 06:10:49;;;;;;;4.88;1.80;;;;;;;-145.50;100.00;65435.88;4888621;29;20131;-38
2021/06/07 06:13:36;;;;;;;5.97;1.50;;;;;;;-145.50;100.00;65435.88;4884554;29;20472;-39
2021/06/07 06:16:03;;;;;;;5.10;1.60;;;;;;;-145.50;100.00;65435.88;4891204;29;20056;-38
2021/06/07 06:18:29;;;;;;;6.03;1.45;;;;;;;-145.50;100.00;65435.88;4890945;29;20102;-38
2021/06/07 06:20:56;;;;;;;4.68;1.60;;;;;;;-145.50;100.00;65435.88;4892132;29;20528;-39
2021/06/07 06:23:22;;;;;;;3.00;1.40;;;;;;;-145.50;100.00;65435.88;4889370;29;20143;-38
2021/06/07 06:25:49;;;;;;;4.15;1.33;;;;;;;-145.50;100.00;65435.88;4883542;29;20091;-39
2021/06/07 06:28:15;;;;;;;7.75;1.55;;;;;;;-145.50;100.00;65435.88;4892507;29;20091;-38
2021/06/07 06:30:42;;;;;;;3.40;1.50;;;;;;;-145.50;100.00;65435.88;4885065;29;20083;-39
2021/06/07 06:33:09;;;;;;;4.28;1.55;;;;;;;-145.50;100.00;65435.88;4892016;29;20068;-38
2021/06/07 06:35:35;;;;;;;5.82;1.70;;;;;;;-145.50;100.00;65435.88;4887925;29;20092;-38
2021/06/07 06:38:03;;;;;;;5.03;1.52;;;;;;;-145.50;100.00;65435.88;4888200;29;20132;-38
2021/06/07 06:40:33;;;;;;;6.55;1.50;;;;;;;-145.50;100.00;65435.88;4889297;29;20132;-38
2021/06/07 06:43:01;;;;;;;5.60;1.23;;;;;;;-145.50;100.00;65435.88;4886895;29;20056;-38
2021/06/07 06:45:28;;;;;;;5.68;2.20;;;;;;;-145.50;100.00;65435.88;4890093;29;20052;-38
2021/06/07 06:47:58;;;;;;;2.80;1.23;;;;;;;-145.50;100.00;65435.88;4883293;29;20139;-38
2021/06/07 06:50:33;;;;;;;2.35;1.50;;;;;;;-145.50;100.00;65435.88;4881817;29;20083;-38
2021/06/07 06:53:05;;;;;;;3.20;1.58;;;;;;;-145.50;100.00;65435.88;4887438;29;20056;-38
2021/06/07 06:55:32;;;;;;;6.22;2.88;;;;;;;-145.50;100.00;65435.88;4888679;29;20079;-39
2021/06/07 06:57:59;;;;;;;7.35;2.03;;;;;;;-145.50;100.00;65435.88;4888871;29;20059;-38
2021/06/07 07:00:25;;;;;;;2.92;1.55;;;;;;;-145.50;100.00;65435.88;4890034;29;20165;-38
2021/06/07 07:02:52;;;;;;;4.45;1.85;;;;;;;-145.50;100.00;65435.88;4887712;29;20099;-38
2021/06/07 07:05:19;;;;;;;4.05;1.55;;;;;;;-145.50;100.00;65435.88;4883331;29;20136;-38
2021/06/07 07:07:45;;;;;;;4.07;1.70;;;;;;;-145.50;100.00;65435.88;4886155;29;20148;-38
2021/06/07 07:10:12;;;;;;;2.85;1.30;;;;;;;-145.50;100.00;65435.88;4884401;29;20140;-38
2021/06/07 07:12:38;;;;;;;2.53;1.60;;;;;;;-145.50;100.00;65435.88;4892011;29;20084;-38
2021/06/07 07:15:06;;;;;;;7.05;1.90;;;;;;;-145.50;100.00;65435.88;4887828;29;20084;-38
2021/06/07 07:17:32;;;;;;;3.65;1.83;;;;;;;-145.50;100.00;65435.88;4898769;29;20492;-38
2021/06/07 07:19:59;;;;;;;3.05;1.83;;;;;;;-145.50;100.00;65435.88;4885979;29;20481;-38
2021/06/07 07:22:25;;;;;;;4.13;1.90;;;;;;;-145.50;100.00;65435.88;4886333;29;20536;-38
2021/06/07 07:24:52;;;;;;;6.28;1.75;;;;;;;-145.50;100.00;65435.88;4891579;29;20136;-38
2021/06/07 07:27:20;;;;;;;2.63;1.58;;;;;;;-145.50;100.00;65435.88;4887935;29;20080;-38
2021/06/07 07:29:47;;;;;;;5.68;1.70;;;;;;;-145.50;100.00;65435.88;4891578;29;20160;-38
2021/06/07 07:32:13;;;;;;;5.32;1.70;;;;;;;-145.50;100.00;65435.88;4884197;29;20135;-38
2021/06/07 07:34:41;;;;;;;5.57;1.70;;;;;;;-145.50;100.00;65435.88;4888404;29;20159;-38
2021/06/07 07:37:09;;;;;;;3.47;1.90;;;;;;;-145.50;100.00;65435.88;4896628;29;20079;-38
2021/06/07 07:39:37;;;;;;;3.30;1.48;;;;;;;-145.50;100.00;65435.88;4891176;29;20318;-38
2021/06/07 07:42:05;;;;;;;5.20;1.50;;;;;;;-145.50;100.00;65435.88;4895034;29;20757;-38
2021/06/07 07:44:33;;;;;;;6.07;1.88;;;;;;;-145.50;100.00;65435.88;4890320;29;20135;-38
2021/06/07 07:47:01;;;;;;;4.28;2.25;;;;;;;-145.50;100.00;65435.88;4893700;29;20148;-38
2021/06/07 07:49:28;;;;;;;;;;;;;;;-145.50;100.00;65435.88;4886488;29;20139;-38
2021/06/07 07:51:54;;;;;;;2.70;1.70;;;;;;;-145.50;100.00;65435.88;4895866;29;19990;-38
2021/06/07 07:54:21;;;;;;;4.10;1.50;;;;;;;-145.50;100.00;65435.88;4894810;29;20088;-38
2021/06/07 07:56:50;;;;;;;3.50;1.98;;;;;;;-145.50;100.00;65435.88;4894735;29;20139;-38
2021/06/07 07:59:17;;;;;;;3.80;1.80;;;;;;;-145.50;100.00;65435.88;4896794;29;20177;-38
2021/06/07 08:01:43;;;;;;;2.78;1.77;;;;;;;-145.50;100.00;65435.88;4883660;29;20119;-38
2021/06/07 08:04:11;;;;;;;3.75;1.60;;;;;;;-145.50;100.00;65435.88;4899177;29;20120;-38
2021/06/07 08:06:38;;;;;;;4.90;1.87;;;;;;;-145.50;100.00;65435.88;4886831;29;20049;-38
2021/06/07 08:09:04;;;;;;;5.88;1.88;;;;;;;-145.50;100.00;65435.88;4894898;29;20926;-38
2021/06/07 08:11:31;;;;;;;5.57;1.75;;;;;;;-145.50;100.00;65435.88;4892052;29;20140;-38
2021/06/07 08:13:58;;;;;;;6.43;1.88;;;;;;;-145.50;100.00;65435.88;4890665;29;20496;-38
2021/06/07 08:16:24;;;;;;;2.47;1.45;;;;;;;-145.50;100.00;65435.88;4899778;29;20135;-38
2021/06/07 08:18:51;;;;;;;6.57;1.65;;;;;;;-145.50;100.00;65435.88;4889941;29;20776;-38
2021/06/07 08:21:17;;;;;;;3.33;1.40;;;;;;;-145.50;100.00;65435.88;4895969;29;20087;-38
2021/06/07 08:23:44;;;;;;;4.35;1.77;;;;;;;-145.50;100.00;65435.88;4890079;29;20053;-38
2021/06/07 08:26:10;;;;;;;3.20;1.85;;;;;;;-145.50;100.00;65435.88;4888770;29;20131;-38
2021/06/07 08:28:37;;;;;;;3.15;2.08;;;;;;;-145.50;100.00;65435.88;4883778;29;20080;-37
2021/06/07 08:31:03;;;;;;;6.07;1.98;;;;;;;-145.50;100.00;65435.88;4893419;29;20092;-37
2021/06/07 08:33:31;;;;;;;3.90;1.35;;;;;;;-145.50;100.00;65435.88;4895148;29;20761;-37
2021/06/07 08:35:58;;;;;;;3.95;1.65;;;;;;;-145.50;100.00;65435.88;4890331;29;20052;-37
2021/06/07 08:38:26;;;;;;;4.75;1.73;;;;;;;-145.50;100.00;65435.88;4894880;29;20128;-37
2021/06/07 08:40:53;;;;;;;3.95;1.67;;;;;;;-145.50;100.00;65435.88;4885599;29;20131;-37
2021/06/07 08:43:23;;;;;;;7.05;1.77;;;;;;;-145.50;100.00;65435.88;4894830;29;20127;-37
2021/06/07 08:45:50;;;;;;;4.40;1.58;;;;;;;-145.50;100.00;65435.88;4891379;29;20099;-37
2021/06/07 08:48:18;;;;;;;4.88;1.88;;;;;;;-145.50;100.00;65435.88;4893395;29;20152;-37
2021/06/07 08:50:45;;;;;;;3.13;1.42;;;;;;;-145.50;100.00;65435.88;4893520;29;20071;-38
2021/06/07 08:53:13;;;;;;;4.88;1.50;;;;;;;-145.50;100.00;65435.88;4889571;29;20500;-37
2021/06/07 08:55:40;;;;;;;2.72;1.60;;;;;;;-145.50;100.00;65435.88;4888259;29;20143;-37
2021/06/07 08:58:09;;;;;;;4.15;1.75;;;;;;;-145.50;100.00;65435.88;4887133;29;20163;-38
2021/06/07 09:00:40;;;;;;;4.30;1.95;;;;;;;-145.50;100.00;65435.88;4894239;29;20057;-38
2021/06/07 09:03:10;;;;;;;5.05;1.48;;;;;;;-145.50;100.00;65435.88;4890418;29;20105;-38
2021/06/07 09:05:39;;;;;;;6.90;1.70;;;;;;;-145.50;100.00;65435.88;4893192;29;20056;-38
2021/06/07 09:08:15;;;;;;;7.30;1.63;;;;;;;-145.50;100.00;65435.88;4880430;29;20099;-38
2021/06/07 09:10:49;;;;;;;3.92;1.40;;;;;;;-145.50;100.00;65435.88;4888106;29;20121;-38
2021/06/07 09:13:17;;;;;;;3.63;1.52;;;;;;;-145.50;100.00;65435.88;4893924;29;20618;-38
2021/06/07 09:15:49;;;;;;;3.47;1.52;;;;;;;-145.50;100.00;65435.88;4895326;29;20136;-38
2021/06/07 09:18:32;;;;;;;2.78;1.60;;;;;;;-145.50;100.00;65435.88;4891195;29;20577;-38
2021/06/07 09:21:21;;;;;;;4.85;1.80;;;;;;;-145.50;100.00;65435.88;4881537;29;20851;-38
2021/06/07 09:23:49;;;;;;;4.40;2.20;;;;;;;-145.50;100.00;65435.88;4889286;29;20144;-38
2021/06/07 09:26:29;;;;;;;;;;;;;;;-145.50;100.00;65435.88;4887610;29;20091;-38
2021/06/07 09:28:58;;;;;;;3.58;1.70;;;;;;;-145.50;100.00;65435.88;4888831;29;20014;-38
2021/06/07 09:31:31;;;;;;;4.18;1.70;;;;;;;-145.50;100.00;65435.88;4888432;29;20458;-38
2021/06/07 09:34:01;;;;;;;11.60;2.05;;;;;;;-145.50;100.00;65435.88;4890734;29;20049;-38
2021/06/07 09:36:42;;;;;;;3.85;1.70;;;;;;;-145.50;100.00;65435.88;4884907;29;20097;-38
2021/06/07 09:39:11;;;;;;;1.95;1.23;;;;;;;-145.50;100.00;65435.88;4894850;29;20199;-38
2021/06/07 09:41:45;;;;;;;4.75;1.70;;;;;;;-145.50;100.00;65435.88;4894208;29;20139;-38
2021/06/07 09:44:34;;;;;;;5.57;1.63;;;;;;;-145.50;100.00;65435.88;4891244;29;20140;-38
2021/06/07 09:47:22;;;;;;;2.65;1.42;;;;;;;-145.50;100.00;65435.88;4891848;29;20782;-38
2021/06/07 09:49:56;;;;;;;3.70;1.55;;;;;;;-145.50;100.00;65435.88;4885484;29;20139;-38
2021/06/07 09:52:44;;;;;;;3.70;1.50;;;;;;;-145.50;100.00;65435.88;4889840;29;20488;-38
2021/06/07 09:55:32;;;;;;;4.82;1.65;;;;;;;-145.50;100.00;65435.88;4885262;29;20100;-38
2021/06/07 09:58:01;;;;;;;4.60;1.45;;;;;;;-145.50;100.00;65435.88;4884074;29;20088;-38
2021/06/07 10:00:35;;;;;;;4.38;1.58;;;;;;;-145.50;100.00;65435.88;4886441;29;20793;-38
2021/06/07 10:03:24;;;;;;;2.88;1.58;;;;;;;-145.50;100.00;65435.88;4894340;29;20081;-38
2021/06/07 10:05:52;;;;;;;6.25;1.98;;;;;;;-145.50;100.00;65435.88;4884697;29;20492;-38
2021/06/07 10:08:22;;;;;;;5.07;1.98;;;;;;;-145.50;100.00;65435.88;4894225;29;20053;-38
2021/06/07 10:10:50;;;;;;;6.47;2.00;;;;;;;-145.50;100.00;65435.88;4889064;29;20112;-38
2021/06/07 10:13:17;;;;;;;3.47;1.75;;;;;;;-145.50;100.00;65435.88;4891714;29;20152;-38
2021/06/07 10:15:46;;;;;;;3.70;1.90;;;;;;;-145.50;100.00;65435.88;4892520;29;20063;-38
2021/06/07 10:18:19;;;;;;;4.97;1.83;;;;;;;-145.50;100.00;65435.88;4889783;29;20057;-38
2021/06/07 10:20:50;;;;;;;5.78;2.22;;;;;;;-145.50;100.00;65435.88;4890126;29;20052;-38
2021/06/07 10:23:24;;;;;;;3.42;1.83;;;;;;;-145.50;100.00;65435.88;4885585;29;20147;-38
2021/06/07 10:25:53;;;;;;;2.15;1.48;;;;;;;-145.50;100.00;65435.88;4893906;29;20108;-38
2021/06/07 10:28:26;;;;;;;3.17;1.77;;;;;;;-145.50;100.00;65435.88;4885351;29;20091;-38
2021/06/07 10:30:53;;;;;;;5.05;1.88;;;;;;;-145.50;100.00;65435.88;4887305;29;20243;-38
2021/06/07 10:33:37;;;;;;;5.60;1.80;;;;;;;-145.50;100.00;65435.88;4886082;29;20088;-38
2021/06/07 10:36:19;;;;;;;4.03;1.58;;;;;;;-145.50;100.00;65435.88;4887746;29;20810;-38
2021/06/07 10:38:46;;;;;;;4.60;2.00;;;;;;;-145.50;100.00;65435.88;4888646;29;20147;-38
2021/06/07 10:41:23;;;;;;;4.87;2.10;;;;;;;-145.50;100.00;65435.88;4891447;29;20127;-38
2021/06/07 10:43:53;;;;;;;3.22;1.70;;;;;;;-145.50;100.00;65435.88;4887244;29;20048;-38
2021/06/07 10:46:35;;;;;;;5.22;2.00;;;;;;;-145.50;100.00;65435.88;4883381;29;20169;-38
2021/06/07 10:49:23;;;;;;;4.35;1.60;;;;;;;-145.50;100.00;65435.88;4893570;29;20048;-39
2021/06/07 10:52:09;;;;;;;3.78;1.60;;;;;;;-145.50;100.00;65435.88;4888654;29;20449;-38
2021/06/07 10:54:42;;;;;;;4.63;1.80;;;;;;;-145.50;100.00;65435.88;4886538;29;20084;-39
2021/06/07 10:57:28;;;;;;;2.17;1.50;;;;;;;-145.50;100.00;65435.88;4882917;29;20131;-39
2021/06/07 10:59:58;;;;;;;5.80;1.92;;;;;;;-145.50;100.00;65435.88;4890246;29;20075;-38
2021/06/07 11:02:26;;;;;;;4.57;2.20;;;;;;;-145.50;100.00;65435.88;4887464;29;20115;-38
2021/06/07 11:05:03;;;;;;;7.60;2.55;;;;;;;-145.50;100.00;65435.88;4888989;29;20155;-38
2021/06/07 11:07:29;;;;;;;4.97;1.60;;;;;;;-145.50;100.00;65435.88;4885894;29;20084;-38
2021/06/07 11:10:20;;;;;;;3.67;1.60;;;;;;;-145.50;100.00;65435.88;4888013;29;20071;-39
2021/06/07 11:12:49;;;;;;;3.03;1.50;;;;;;;-145.50;100.00;65435.88;4881200;29;21212;-38
2021/06/07 11:15:28;;;;;;;5.22;1.83;;;;;;;-145.50;100.00;65435.88;4882478;29;20148;-38
2021/06/07 11:18:33;;;;;;;8.02;2.42;;;;;;;-145.50;100.00;65435.88;4885966;29;20052;-38
2021/06/07 11:21:05;;;;;;;3.63;1.60;;;;;;;-145.50;100.00;65435.88;4893275;29;20459;-38